Time;durP1;ratioP1;P1;durP2;ratioP2;P2;SDS_P1;SDS_P2;PMS_P1;PMS_P2;Temp;Humidity;BMP_temperature;BMP_pressure;BME280_temperature;BME280_humidity;BME280_pressure;Samples;Min_cycle;Max_cycle;Signal;HPM_P1;HPM_P2
2021/12/10 00:04:46;;;;;;;121.92;42.98;;;;;;;-1.34;95.38;97748.09;3977666;88;21573;-82
2021/12/10 00:10:55;;;;;;;111.93;42.27;;;;;;;-1.43;95.34;97731.82;3981565;87;21046;-83
2021/12/10 00:16:59;;;;;;;109.00;44.15;;;;;;;-1.44;95.82;97741.77;3983164;88;21091;-82
2021/12/10 00:23:06;;;;;;;127.27;43.47;;;;;;;-1.40;95.69;97737.87;3965809;87;21299;-83
2021/12/10 00:29:08;;;;;;;139.47;47.63;;;;;;;-1.40;95.80;97736.53;3972632;88;21076;-82
2021/12/10 00:35:15;;;;;;;130.93;46.17;;;;;;;-1.36;95.89;97738.23;3968284;88;21689;-82
2021/12/10 00:41:16;;;;;;;125.62;45.58;;;;;;;-1.37;95.69;97728.61;3982040;88;21088;-83
2021/12/10 00:47:17;;;;;;;122.35;44.75;;;;;;;-1.38;95.78;97724.38;3981668;87;21144;-82
2021/12/10 00:53:19;;;;;;;121.20;44.43;;;;;;;-1.28;96.05;97711.11;3973999;88;21806;-82
2021/12/10 00:59:20;;;;;;;137.07;45.08;;;;;;;-1.24;95.85;97691.33;3991592;88;21156;-82
2021/12/10 01:05:22;;;;;;;121.77;44.00;;;;;;;-1.37;95.68;97696.95;3969678;87;21052;-81
2021/12/10 01:11:32;;;;;;;111.20;39.97;;;;;;;-1.42;96.29;97710.02;3969121;88;21550;-82
2021/12/10 01:24:08;;;;;;;117.03;43.43;;;;;;;-1.43;96.05;97726.45;3845930;88;21680;-82
2021/12/10 01:30:18;;;;;;;109.33;44.23;;;;;;;-1.35;96.51;97700.89;3974872;87;22403;-82
2021/12/10 01:36:21;;;;;;;118.15;43.80;;;;;;;-1.26;96.05;97719.59;3972134;87;21185;-82
2021/12/10 01:48:34;;;;;;;109.12;45.20;;;;;;;-1.19;96.50;97714.50;3961476;88;21085;-82
2021/12/10 01:54:45;;;;;;;116.63;43.53;;;;;;;-1.06;96.09;97705.36;3966833;87;21138;-82
2021/12/10 02:00:52;;;;;;;117.35;43.55;;;;;;;-1.12;96.23;97716.08;3956666;88;21731;-82
2021/12/10 02:06:54;;;;;;;121.10;43.90;;;;;;;-1.08;96.13;97730.44;3978850;88;21155;-82
2021/12/10 02:12:58;;;;;;;118.70;45.03;;;;;;;-1.10;96.19;97728.63;3971879;87;21106;-82
2021/12/10 02:18:59;;;;;;;115.35;44.65;;;;;;;-1.09;96.18;97726.95;3967891;88;21108;-81
2021/12/10 02:25:02;;;;;;;123.47;44.50;;;;;;;-1.10;96.13;97705.80;3960594;88;21113;-81
2021/12/10 02:31:05;;;;;;;111.72;42.23;;;;;;;-1.08;96.49;97698.97;3965532;88;21202;-81
2021/12/10 02:37:07;;;;;;;120.70;44.07;;;;;;;-1.03;96.35;97681.31;3984601;88;21953;-81
2021/12/10 02:43:11;;;;;;;115.52;44.75;;;;;;;-1.02;96.33;97687.48;3933812;89;21079;-81
2021/12/10 02:49:14;;;;;;;118.80;41.95;;;;;;;-1.00;96.25;97659.16;3941359;88;21278;-81
2021/12/10 02:55:16;;;;;;;116.55;41.75;;;;;;;-1.00;96.25;97659.16;3933856;89;21594;-81
2021/12/10 03:01:40;;;;;;;119.87;43.85;;;;;;;-1.01;96.20;97673.72;3944285;88;21134;-81
2021/12/10 03:07:42;;;;;;;112.52;40.90;;;;;;;-1.04;96.01;97666.88;3944032;89;21119;-81
2021/12/10 03:13:43;;;;;;;108.17;40.63;;;;;;;-1.04;96.01;97666.88;3937279;87;21099;-81
2021/12/10 03:19:45;;;;;;;118.15;41.23;;;;;;;-1.04;96.24;97657.48;3938115;87;21019;-81
2021/12/10 03:25:49;;;;;;;110.65;41.25;;;;;;;-0.95;96.63;97677.77;3897508;89;30239;-81
2021/12/10 03:31:55;;;;;;;114.15;42.53;;;;;;;-0.95;96.54;97686.38;3890486;90;21170;-81
2021/12/10 03:38:02;;;;;;;120.77;43.00;;;;;;;-0.95;96.30;97676.97;3887327;90;21103;-81
2021/12/10 03:44:04;;;;;;;117.17;44.93;;;;;;;-0.93;96.26;97689.52;3876462;90;21178;-79
2021/12/10 03:50:09;;;;;;;127.60;47.60;;;;;;;-1.13;96.23;97692.49;3886004;90;21940;-80
2021/12/10 03:56:14;;;;;;;130.05;48.63;;;;;;;-1.08;96.40;97691.50;3902576;90;21101;-81
2021/12/10 04:02:16;;;;;;;124.00;46.42;;;;;;;-1.01;96.49;97683.13;3893771;90;21074;-80
2021/12/10 04:08:18;;;;;;;126.67;47.48;;;;;;;-1.11;96.21;97698.87;3894148;90;21082;-80
2021/12/10 04:14:20;;;;;;;120.53;46.20;;;;;;;-1.14;96.37;97704.91;3885001;90;21093;-81
2021/12/10 04:20:25;;;;;;;130.57;47.17;;;;;;;-1.09;96.53;97695.28;3886965;90;21523;-80
2021/12/10 04:26:28;;;;;;;125.50;48.03;;;;;;;-1.04;96.50;97692.39;3891016;90;21552;-80
2021/12/10 04:32:30;;;;;;;130.45;46.88;;;;;;;-1.03;96.77;97691.27;3875020;90;21058;-80
2021/12/10 04:38:33;;;;;;;129.00;48.50;;;;;;;-1.03;96.77;97691.27;3895663;87;37872;-80
2021/12/10 04:44:35;;;;;;;139.07;48.38;;;;;;;-1.01;96.38;97695.20;4047473;86;21645;-80
2021/12/10 04:50:37;;;;;;;125.60;47.05;;;;;;;-1.07;96.67;97705.14;4054179;86;21054;-80
2021/12/10 04:56:40;;;;;;;136.15;48.15;;;;;;;-1.05;96.42;97715.00;4041611;86;21140;-82
2021/12/10 05:02:44;;;;;;;132.20;48.85;;;;;;;-1.07;96.51;97722.05;4050385;86;21542;-80
2021/12/10 05:08:47;;;;;;;123.70;49.70;;;;;;;-1.04;96.58;97718.70;4057231;86;21076;-80
2021/12/10 05:14:49;;;;;;;125.30;50.12;;;;;;;-1.01;96.92;97733.36;4058262;86;21129;-80
2021/12/10 05:20:52;;;;;;;130.43;48.95;;;;;;;-0.90;97.03;97721.89;4060880;86;21105;-80
2021/12/10 05:26:57;;;;;;;135.93;48.00;;;;;;;-0.89;96.59;97726.71;4063649;86;21422;-79
2021/12/10 05:33:01;;;;;;;127.05;47.95;;;;;;;-0.97;96.71;97706.09;4058682;86;21057;-80
2021/12/10 05:39:07;;;;;;;131.43;51.30;;;;;;;-0.91;96.91;97698.80;4046758;86;21579;-80
2021/12/10 05:45:09;;;;;;;131.70;52.10;;;;;;;-0.84;96.59;97692.89;4063453;86;21093;-80
2021/12/10 05:51:11;;;;;;;131.85;51.98;;;;;;;-0.91;96.61;97690.75;4064937;86;21105;-79
2021/12/10 05:57:13;;;;;;;122.30;49.10;;;;;;;-1.02;96.64;97699.02;4055692;86;21041;-79
2021/12/10 06:03:14;;;;;;;129.82;52.10;;;;;;;-0.99;96.77;97700.25;4064481;86;21591;-79
2021/12/10 06:09:16;;;;;;;134.65;52.05;;;;;;;-1.12;97.08;97691.91;4065874;86;21030;-80
2021/12/10 06:15:22;;;;;;;119.15;47.17;;;;;;;-1.12;97.08;97691.91;4061346;86;21103;-80
2021/12/10 06:21:23;;;;;;;134.37;52.48;;;;;;;-1.00;96.81;97715.57;4066520;86;21527;-80
2021/12/10 06:27:24;;;;;;;148.17;58.55;;;;;;;-1.00;96.96;97725.55;4059323;86;22202;-80
2021/12/10 06:33:28;;;;;;;133.65;54.30;;;;;;;-1.02;96.74;97729.11;4060481;86;21101;-80
2021/12/10 06:39:30;;;;;;;140.80;54.85;;;;;;;-1.05;96.76;97723.83;4053488;86;21645;-80
2021/12/10 06:45:36;;;;;;;140.60;58.45;;;;;;;-1.08;96.88;97724.48;4049662;86;21089;-80
2021/12/10 06:51:37;;;;;;;124.45;52.90;;;;;;;-1.05;96.95;97730.54;4031982;87;21359;-80
2021/12/10 06:57:39;;;;;;;141.20;56.35;;;;;;;-1.03;97.11;97720.27;4036593;87;21111;-80
2021/12/10 07:03:42;;;;;;;136.25;56.10;;;;;;;-0.99;96.96;97720.39;4037876;87;21085;-79
2021/12/10 07:09:44;;;;;;;142.65;59.53;;;;;;;-0.89;97.45;97715.97;4034262;86;21061;-79
2021/12/10 07:15:48;;;;;;;143.22;57.75;;;;;;;-0.84;96.90;97716.53;4035270;86;21116;-79
2021/12/10 07:21:49;;;;;;;141.10;60.95;;;;;;;-0.98;97.15;97713.34;4025361;87;21046;-79
2021/12/10 07:27:52;;;;;;;147.10;59.50;;;;;;;-0.88;97.42;97718.87;4028784;87;21113;-79
2021/12/10 07:33:54;;;;;;;162.72;69.10;;;;;;;-0.83;97.36;97719.43;4029616;87;21403;-79
2021/12/10 07:39:56;;;;;;;159.03;66.37;;;;;;;-0.79;97.33;97727.08;4037405;87;21576;-79
2021/12/10 07:45:57;;;;;;;157.30;68.47;;;;;;;-0.84;97.00;97733.99;4041911;86;21141;-79
2021/12/10 07:52:00;;;;;;;153.55;63.83;;;;;;;-0.90;97.55;97735.32;4054957;87;21609;-79
2021/12/10 07:58:05;;;;;;;171.05;67.60;;;;;;;-0.57;97.42;97756.80;4036436;86;21538;-79
2021/12/10 08:04:07;;;;;;;148.47;61.90;;;;;;;-0.62;97.40;97755.11;4055910;86;21030;-80
2021/12/10 08:10:11;;;;;;;162.68;67.97;;;;;;;-0.60;97.50;97753.44;4051957;86;21094;-79
2021/12/10 08:16:13;;;;;;;162.53;66.45;;;;;;;-0.51;97.34;97736.65;4059393;86;21073;-79
2021/12/10 08:22:15;;;;;;;165.47;66.95;;;;;;;-0.48;97.48;97732.75;3952050;88;21109;-79
2021/12/10 08:28:21;;;;;;;171.68;67.65;;;;;;;-0.48;97.48;97732.75;3970487;88;21069;-78
2021/12/10 08:34:22;;;;;;;180.10;71.53;;;;;;;-0.14;97.82;97762.47;3967969;88;21081;-79
2021/12/10 08:40:29;;;;;;;176.90;70.87;;;;;;;0.04;97.58;97761.16;3970113;88;21888;-79
2021/12/10 08:46:30;;;;;;;159.63;67.75;;;;;;;0.03;97.33;97771.70;3983621;87;21177;-80
2021/12/10 08:52:32;;;;;;;155.18;66.15;;;;;;;0.16;97.51;97772.49;4071028;86;21011;-78
2021/12/10 08:58:33;;;;;;;155.15;65.62;;;;;;;0.28;97.20;97772.48;4065451;86;21077;-79
2021/12/10 09:04:35;;;;;;;179.93;73.17;;;;;;;0.29;96.90;97762.72;4071426;86;21101;-80
2021/12/10 09:10:40;;;;;;;162.80;67.32;;;;;;;0.39;97.34;97758.24;4065069;86;21057;-80
2021/12/10 09:16:43;;;;;;;161.10;69.25;;;;;;;0.64;97.59;97758.98;4067788;86;21081;-81
2021/12/10 09:22:45;;;;;;;167.13;70.00;;;;;;;0.57;96.76;97754.72;4071484;86;20994;-81
2021/12/10 09:28:47;;;;;;;169.77;71.33;;;;;;;0.48;96.93;97752.72;4071905;86;21007;-81
2021/12/10 09:34:54;;;;;;;170.20;69.80;;;;;;;0.64;97.17;97743.62;4075717;86;21104;-82
2021/12/10 09:41:05;;;;;;;165.73;73.15;;;;;;;0.92;97.47;97742.30;4068065;86;21037;-81
2021/12/10 09:47:14;;;;;;;187.15;82.70;;;;;;;1.11;96.57;97727.63;4066328;86;22068;-81
2021/12/10 09:53:12;;;;;;;178.40;76.82;;;;;;;0.93;96.29;97727.69;4038730;86;21101;-84
2021/12/10 09:59:21;;;;;;;198.10;82.17;;;;;;;1.30;96.90;97727.77;4057295;86;21066;-81
2021/12/10 10:05:27;;;;;;;188.97;81.32;;;;;;;1.23;96.27;97720.83;4064408;86;21018;-82
2021/12/10 10:11:55;;;;;;;185.15;79.47;;;;;;;1.21;95.82;97720.38;4056638;86;21146;-83
2021/12/10 10:18:27;;;;;;;184.85;81.47;;;;;;;1.19;96.08;97716.68;4063285;86;21038;-82
2021/12/10 10:24:30;;;;;;;181.02;80.00;;;;;;;1.19;96.11;97716.68;4064101;86;21053;-83
2021/12/10 10:30:57;;;;;;;187.00;78.55;;;;;;;1.32;96.17;97721.45;4064192;86;21681;-83
2021/12/10 10:37:03;;;;;;;178.38;78.25;;;;;;;1.34;95.83;97712.46;4068058;86;21090;-82
2021/12/10 10:43:06;;;;;;;187.62;81.42;;;;;;;1.32;95.71;97700.67;4051876;86;21102;-82
2021/12/10 10:49:48;;;;;;;174.55;77.10;;;;;;;1.39;95.87;97706.82;4042763;86;21134;-81
2021/12/10 10:56:00;;;;;;;171.18;75.30;;;;;;;1.44;95.74;97711.97;4031322;87;21101;-82
2021/12/10 11:02:08;;;;;;;188.68;79.47;;;;;;;1.58;96.19;97713.67;4032163;87;21546;-82
2021/12/10 11:08:12;;;;;;;123.92;56.58;;;;;;;1.81;96.34;97709.80;4030413;87;21071;-82
2021/12/10 11:14:20;;;;;;;95.95;42.78;;;;;;;1.95;95.77;97700.69;4018660;87;21621;-83
2021/12/10 11:20:27;;;;;;;100.33;42.67;;;;;;;1.98;95.43;97698.64;4031220;87;21059;-82
2021/12/10 11:26:52;;;;;;;147.02;62.98;;;;;;;2.03;95.51;97712.67;4022801;87;21511;-82
2021/12/10 11:33:27;;;;;;;160.97;71.75;;;;;;;2.04;95.37;97710.17;4023044;87;21066;-83
2021/12/10 11:39:59;;;;;;;117.00;50.25;;;;;;;2.00;95.11;97707.19;4029639;87;21003;-82
2021/12/10 11:47:24;;;;;;;;;;;;;;;;;;;;;
2021/12/10 11:59:52;;;;;;;112.47;48.92;;;;;;;1.86;94.83;97709.54;4032834;87;21090;-83
2021/12/10 12:05:54;;;;;;;142.95;61.75;;;;;;;1.91;95.11;97703.30;4034389;87;21074;-83
2021/12/10 12:12:20;;;;;;;151.95;65.57;;;;;;;1.92;94.97;97704.88;4013534;87;21157;-84
2021/12/10 12:18:32;;;;;;;150.12;67.72;;;;;;;1.86;94.91;97692.00;4019977;87;21635;-84
2021/12/10 12:24:57;;;;;;;141.82;62.98;;;;;;;1.79;95.13;97676.42;4032393;88;21143;-83
2021/12/10 12:31:22;;;;;;;126.40;57.53;;;;;;;1.74;95.16;97678.02;4017372;87;21531;-84
2021/12/10 12:37:30;;;;;;;135.00;62.80;;;;;;;1.75;95.01;97684.22;4028815;87;21055;-83
2021/12/10 12:43:53;;;;;;;118.17;55.45;;;;;;;1.74;95.04;97679.38;4041453;88;21555;-83
2021/12/10 12:50:42;;;;;;;123.50;56.63;;;;;;;1.78;95.41;97691.05;4039282;87;21211;-83
2021/12/10 12:57:22;;;;;;;132.80;58.87;;;;;;;1.75;95.00;97684.22;4006594;87;21049;-83
2021/12/10 13:10:57;;;;;;;129.30;59.42;;;;;;;1.74;95.19;97673.22;4072571;85;21059;-83
2021/12/10 13:37:33;;;;;;;133.60;60.70;;;;;;;1.70;94.74;97686.61;4027458;87;21070;-84
2021/12/10 13:43:51;;;;;;;136.82;59.93;;;;;;;1.59;94.78;97688.27;4045341;86;21559;-85
2021/12/10 13:56:47;;;;;;;148.80;66.15;;;;;;;1.60;95.18;97689.27;3926337;87;326026;-86
2021/12/10 14:02:51;;;;;;;151.65;68.45;;;;;;;1.61;95.37;97689.47;3829142;92;21172;-86
2021/12/10 14:09:16;;;;;;;167.25;76.33;;;;;;;1.69;95.29;97684.27;3836746;91;21092;-87
2021/12/10 14:16:15;;;;;;;185.78;80.25;;;;;;;1.50;94.74;97674.17;3881513;90;21050;-88
2021/12/10 14:23:01;;;;;;;210.55;92.12;;;;;;;1.38;94.94;97671.53;3862524;90;21116;-87
2021/12/10 14:36:38;;;;;;;162.37;77.40;;;;;;;1.33;95.38;97667.18;3765730;91;21052;-89
2021/12/10 14:43:05;;;;;;;168.15;75.10;;;;;;;1.31;95.30;97672.16;3825948;90;21120;-87
2021/12/10 14:50:05;;;;;;;150.15;69.27;;;;;;;1.24;95.06;97677.34;3877485;88;21770;-88
2021/12/10 14:56:53;;;;;;;153.50;69.77;;;;;;;1.09;95.11;97675.42;3875756;91;21066;-87
2021/12/10 15:10:05;;;;;;;150.35;67.60;;;;;;;0.97;95.30;97682.20;3928232;89;21622;-87
2021/12/10 15:16:32;;;;;;;152.17;67.67;;;;;;;0.86;94.81;97681.70;3988858;88;21025;-85
2021/12/10 15:22:38;;;;;;;232.22;91.80;;;;;;;0.67;94.78;97690.41;3974390;87;21098;-85
2021/12/10 15:28:42;;;;;;;221.40;84.47;;;;;;;0.60;95.02;97688.85;4005483;88;21070;-85
2021/12/10 15:34:55;;;;;;;207.92;83.05;;;;;;;0.50;95.18;97689.31;4010612;88;21062;-86
2021/12/10 15:41:14;;;;;;;176.87;76.57;;;;;;;0.50;95.27;97690.66;4001475;87;21699;-85
2021/12/10 15:47:19;;;;;;;161.35;73.55;;;;;;;0.44;95.03;97677.22;3995017;88;21085;-85
2021/12/10 15:53:26;;;;;;;157.70;70.28;;;;;;;0.36;95.02;97674.67;3989132;88;21130;-85
2021/12/10 15:59:34;;;;;;;155.55;72.67;;;;;;;0.23;94.96;97669.88;3991373;88;21478;-85
2021/12/10 16:05:35;;;;;;;149.72;69.10;;;;;;;0.17;95.34;97673.93;3994880;87;21215;-86
2021/12/10 16:11:36;;;;;;;145.32;65.52;;;;;;;0.09;95.19;97678.08;3988543;88;21073;-86
2021/12/10 16:17:38;;;;;;;137.12;60.88;;;;;;;0.04;95.28;97677.75;3973921;88;21066;-87
2021/12/10 16:23:54;;;;;;;140.12;59.15;;;;;;;-0.06;95.22;97678.98;3966727;88;21098;-85
2021/12/10 16:30:01;;;;;;;132.15;57.03;;;;;;;-0.10;95.64;97676.76;3988463;87;21100;-85
2021/12/10 16:36:09;;;;;;;136.50;59.45;;;;;;;-0.15;95.26;97670.80;3987873;88;21066;-85
2021/12/10 16:42:14;;;;;;;131.50;54.83;;;;;;;-0.18;95.76;97677.66;4009030;88;21078;-85
2021/12/10 16:48:24;;;;;;;129.78;54.23;;;;;;;-0.22;95.83;97690.19;4002094;88;21189;-86
2021/12/10 16:54:35;;;;;;;118.60;52.90;;;;;;;-0.20;95.99;97686.61;3984149;88;21086;-86
2021/12/10 17:00:42;;;;;;;142.65;58.68;;;;;;;-0.21;96.01;97693.67;3978992;88;21153;-84
2021/12/10 17:06:56;;;;;;;143.15;66.50;;;;;;;-0.20;95.93;97684.47;4084966;85;21023;-85
2021/12/10 17:13:08;;;;;;;132.78;60.08;;;;;;;-0.30;95.92;97692.42;4116293;86;21624;-85
2021/12/10 17:19:14;;;;;;;166.15;73.80;;;;;;;-0.22;96.11;97690.77;4114953;86;21039;-88
2021/12/10 17:25:26;;;;;;;158.05;64.92;;;;;;;-0.24;96.08;97691.66;4101941;86;21564;-86
2021/12/10 17:31:33;;;;;;;126.72;52.85;;;;;;;-0.28;96.29;97690.19;4104647;86;21067;-87
2021/12/10 17:37:37;;;;;;;117.50;51.58;;;;;;;-0.30;96.39;97698.38;4110894;86;21087;-84
2021/12/10 17:43:45;;;;;;;121.95;50.70;;;;;;;-0.36;96.47;97696.45;4116905;86;21611;-85
2021/12/10 17:49:53;;;;;;;138.45;55.90;;;;;;;-0.31;97.06;97702.97;4114430;86;21100;-85
2021/12/10 17:55:59;;;;;;;104.58;44.98;;;;;;;-0.28;96.67;97698.26;4044309;86;21131;-85
2021/12/10 18:02:09;;;;;;;120.15;45.92;;;;;;;-0.31;96.71;97709.69;4100896;86;21076;-84
2021/12/10 18:08:18;;;;;;;109.60;44.30;;;;;;;-0.50;96.86;97699.26;4066061;86;22085;-85
2021/12/10 18:14:21;;;;;;;101.60;45.60;;;;;;;-0.49;97.11;97708.88;4065928;86;21071;-85
2021/12/10 18:20:28;;;;;;;103.78;46.77;;;;;;;-0.40;97.09;97696.12;4085106;86;21155;-85
2021/12/10 18:26:44;;;;;;;112.00;46.02;;;;;;;-0.40;97.32;97699.60;3998813;87;21094;-85
2021/12/10 18:32:49;;;;;;;79.12;34.45;;;;;;;-0.40;97.32;97699.60;4072911;87;21062;-85
2021/12/10 18:39:05;;;;;;;114.47;45.17;;;;;;;-0.37;97.34;97715.06;4070621;87;21029;-85
2021/12/10 18:45:14;;;;;;;104.95;44.35;;;;;;;-0.37;97.40;97720.44;4068617;86;21084;-86
2021/12/10 18:51:20;;;;;;;112.65;44.38;;;;;;;-0.39;97.12;97726.70;4070477;86;21098;-86
2021/12/10 18:57:26;;;;;;;;;;;;;;;-0.39;97.12;97726.70;4066712;87;21108;-85
2021/12/10 19:03:33;;;;;;;102.02;44.77;;;;;;;-0.37;97.48;97731.75;4079614;86;20503;-85
2021/12/10 19:09:42;;;;;;;110.25;45.20;;;;;;;-0.36;97.52;97715.86;4033783;86;21114;-85
2021/12/10 19:15:58;;;;;;;107.70;45.33;;;;;;;-0.39;97.54;97721.87;3984237;88;21041;-84
2021/12/10 19:22:07;;;;;;;;;;;;;;;-0.56;97.61;97709.42;3992055;88;21120;-84
2021/12/10 19:28:14;;;;;;;112.83;44.77;;;;;;;-0.40;97.83;97725.70;3937530;89;20143;-87
2021/12/10 19:34:40;;;;;;;104.83;42.08;;;;;;;-0.38;98.10;97742.28;4041218;87;21702;-87
2021/12/10 19:40:59;;;;;;;94.22;40.78;;;;;;;-0.38;98.10;97742.28;3989971;87;21125;-84
2021/12/10 19:47:12;;;;;;;130.20;52.03;;;;;;;-0.33;98.15;97756.87;4028105;87;21113;-85
2021/12/10 19:53:22;;;;;;;104.92;42.73;;;;;;;-0.39;98.25;97762.20;4034827;87;21541;-84
2021/12/10 19:59:36;;;;;;;91.95;38.75;;;;;;;-0.36;98.16;97768.29;4043708;87;21043;-85
2021/12/10 20:05:52;;;;;;;107.47;44.45;;;;;;;-0.40;98.25;97762.78;3984350;88;21077;-85
2021/12/10 20:12:01;;;;;;;119.70;48.15;;;;;;;-0.38;98.32;97765.94;3977892;87;21718;-87
2021/12/10 20:18:11;;;;;;;106.75;43.63;;;;;;;-0.32;98.61;97773.22;4033400;87;21106;-87
2021/12/10 20:24:18;;;;;;;104.07;42.25;;;;;;;-0.37;98.09;97770.19;4038149;87;21136;-87
2021/12/10 20:30:25;;;;;;;104.07;42.40;;;;;;;-0.42;98.48;97783.84;4031921;87;21141;-84
2021/12/10 20:36:49;;;;;;;105.85;41.45;;;;;;;-0.41;98.25;97797.49;4038649;87;21078;-84
2021/12/10 20:43:00;;;;;;;114.52;46.30;;;;;;;-0.46;98.21;97802.31;3982592;87;21073;-86
2021/12/10 20:49:14;;;;;;;123.18;49.63;;;;;;;-0.49;98.36;97799.73;3984112;88;21088;-85
2021/12/10 20:55:28;;;;;;;107.97;44.77;;;;;;;-0.53;98.49;97796.13;4034638;87;21941;-86
2021/12/10 21:01:51;;;;;;;115.52;46.37;;;;;;;-0.55;98.57;97805.07;4026105;86;21561;-85
2021/12/10 21:08:03;;;;;;;111.12;46.65;;;;;;;-0.54;98.57;97813.92;4062508;86;21109;-86
2021/12/10 21:14:15;;;;;;;122.28;47.62;;;;;;;-0.53;98.80;97818.97;4096556;86;21585;-86
2021/12/10 21:20:32;;;;;;;128.85;47.20;;;;;;;-0.52;98.84;97819.77;4073352;87;21066;-85
2021/12/10 21:26:42;;;;;;;113.97;44.42;;;;;;;-0.52;98.86;97827.83;4096046;86;21051;-85
2021/12/10 21:32:49;;;;;;;113.12;46.88;;;;;;;-0.52;98.86;97827.83;4105547;86;21498;-86
2021/12/10 21:38:50;;;;;;;114.97;47.05;;;;;;;-0.44;99.31;97833.69;4105932;86;21095;-85
2021/12/10 21:44:57;;;;;;;121.13;46.10;;;;;;;-0.39;98.90;97843.66;4069369;87;21086;-85
2021/12/10 21:51:04;;;;;;;120.10;45.98;;;;;;;-0.44;98.76;97841.17;4106288;86;21463;-88
2021/12/10 21:57:11;;;;;;;117.00;46.33;;;;;;;-0.45;98.96;97838.27;4110068;86;21108;-85
2021/12/10 22:03:22;;;;;;;113.12;44.67;;;;;;;-0.46;99.09;97848.81;4108810;86;21078;-84
2021/12/10 22:09:29;;;;;;;120.25;45.65;;;;;;;-0.44;99.00;97843.10;4073022;86;21418;-85
2021/12/10 22:15:50;;;;;;;116.55;48.60;;;;;;;-0.42;99.32;97850.25;3993202;88;21064;-84
2021/12/10 22:22:03;;;;;;;108.10;42.62;;;;;;;-0.50;99.34;97841.73;4034826;87;21075;-85
2021/12/10 22:28:11;;;;;;;116.40;43.35;;;;;;;-0.48;99.32;97827.38;4028423;87;21061;-84
2021/12/10 22:34:21;;;;;;;113.30;44.55;;;;;;;-0.50;98.95;97828.30;4035560;87;21034;-85
2021/12/10 22:40:34;;;;;;;112.45;43.70;;;;;;;-0.50;98.95;97828.30;4035927;87;21126;-86
2021/12/10 22:46:41;;;;;;;106.07;41.25;;;;;;;-0.34;99.17;97853.42;4035858;87;21034;-84
2021/12/10 22:52:45;;;;;;;108.63;42.88;;;;;;;-0.57;99.11;97853.56;4036113;87;21515;-84
2021/12/10 22:58:56;;;;;;;116.73;43.08;;;;;;;-0.57;99.11;97853.56;4034333;87;21038;-85
2021/12/10 23:05:09;;;;;;;114.52;45.33;;;;;;;-0.54;99.27;97863.66;4035041;87;21133;-84
2021/12/10 23:11:21;;;;;;;103.75;41.37;;;;;;;-0.70;99.31;97835.80;4076054;86;21121;-84
2021/12/10 23:17:31;;;;;;;106.60;42.78;;;;;;;-0.49;99.35;97869.63;4088075;86;21528;-84
2021/12/10 23:23:32;;;;;;;123.00;47.45;;;;;;;-0.63;99.16;97854.89;4073507;86;21172;-84
2021/12/10 23:30:00;;;;;;;109.10;42.48;;;;;;;-0.60;99.11;97867.13;4086217;86;21067;-83
2021/12/10 23:36:11;;;;;;;107.52;41.28;;;;;;;-0.62;99.18;97883.33;4085736;85;21016;-83
2021/12/10 23:42:21;;;;;;;110.20;42.75;;;;;;;-0.65;98.99;97880.75;4071910;86;21102;-85
2021/12/10 23:48:47;;;;;;;114.75;45.67;;;;;;;-0.68;99.35;97894.85;4068784;86;21588;-86
2021/12/10 23:54:56;;;;;;;108.30;41.83;;;;;;;-0.68;99.56;97903.46;3990972;87;21137;-86
